Accueil
METAR-TAF:

METAR-TAF

Aéroports :

Newton City/County Airport

Newton, Kansas, États-Unis

latitude: 38-03N, longitude: 097-17W, altitude: 467 m

Observation

Le bulletin a été fait il y a 30 minutes, à 16:56 UTC
Vent 10 kt de nord-ouest
Température 14°C
Humidité 94%
Pression 1019 hPa
Visibilité: 11.3 km
Ciel couvert à une hauteur de 600 ft

METAR: KEWK 201656Z AUTO 32010KT 7SM OVC006 14/13 A3010 RMK AO2 SLP184 P0001 T01440133

Heure: 12:26 (17:26 UTC)


TAF: absent

Observations et prévisions météorologiques de plus de 4000 aéroports (messages METAR et TAF).

Les stations disponibles sont représentées par des disques jaunes et rouges sur la carte.

Passer la souris dessus pour voir le nom de la station.

Cliquer dessus pour voir les observations et prévisions météorologiques.

Pour changer de carte: cliquez sur les boutons verts avec une croix noire pour zoomer, sur le bouton vert avec un tiret pour effectuer un zoom arrière, ou sur les flèches vertes pour les cartes adjacentes.


METAR-TAF: